Time;durP1;ratioP1;P1;durP2;ratioP2;P2;SDS_P1;SDS_P2;PMS_P1;PMS_P2;Temp;Humidity;BMP_temperature;BMP_pressure;BME280_temperature;BME280_humidity;BME280_pressure;Samples;Min_cycle;Max_cycle;Signal;HPM_P1;HPM_P2
2021/06/15 00:00:01;;;;;;;11.13;6.28;;;;;;;17.20;100.00;101976.53;3520406;22;20050;-65
2021/06/15 00:02:29;;;;;;;12.25;6.22;;;;;;;17.19;100.00;101982.13;3536220;40;20058;-65
2021/06/15 00:04:55;;;;;;;8.73;6.20;;;;;;;17.15;100.00;101987.00;3535804;40;20047;-66
2021/06/15 00:07:22;;;;;;;14.02;6.78;;;;;;;17.22;100.00;101989.97;3541204;40;20075;-66
2021/06/15 00:10:11;;;;;;;11.90;5.43;;;;;;;17.19;100.00;101988.41;3604061;23;20055;-66
2021/06/15 00:12:37;;;;;;;10.35;6.25;;;;;;;17.03;100.00;101994.50;3555931;40;20060;-66
2021/06/15 00:15:05;;;;;;;10.38;5.75;;;;;;;17.00;100.00;101994.81;3558095;40;20064;-65
2021/06/15 00:17:33;;;;;;;8.13;5.88;;;;;;;17.05;100.00;102002.50;3518185;40;20047;-65
2021/06/15 00:20:00;;;;;;;16.27;5.97;;;;;;;16.91;100.00;102002.00;3518451;40;20087;-65
2021/06/15 00:22:26;;;;;;;8.65;6.07;;;;;;;16.93;100.00;102001.84;3518602;40;20294;-66
2021/06/15 00:24:53;;;;;;;10.65;5.57;;;;;;;17.03;100.00;101999.09;3518870;40;20051;-65
2021/06/15 00:27:19;;;;;;;9.85;5.57;;;;;;;17.04;100.00;101998.09;3518959;40;20075;-65
2021/06/15 00:29:45;;;;;;;11.77;5.45;;;;;;;17.05;100.00;101994.34;3517531;40;20073;-66
2021/06/15 00:32:12;;;;;;;10.98;5.78;;;;;;;16.94;100.00;101993.53;3520439;40;20059;-65
2021/06/15 00:34:40;;;;;;;10.27;5.57;;;;;;;16.89;100.00;101993.16;3519811;40;20048;-65
2021/06/15 00:37:06;;;;;;;11.10;5.40;;;;;;;16.89;100.00;101989.59;3518166;40;20305;-64
2021/06/15 00:39:32;;;;;;;10.13;5.50;;;;;;;17.00;100.00;101997.53;3517764;40;20074;-65
2021/06/15 00:41:59;;;;;;;9.57;5.78;;;;;;;16.96;100.00;101990.66;3519130;40;20302;-65
2021/06/15 00:44:25;;;;;;;9.93;5.82;;;;;;;16.85;100.00;101986.25;3519136;40;20087;-65
2021/06/15 00:46:53;;;;;;;10.73;5.38;;;;;;;16.70;100.00;101982.34;3517537;40;20051;-65
2021/06/15 00:49:26;;;;;;;10.57;4.93;;;;;;;16.71;100.00;101984.91;3518430;40;20069;-66
2021/06/15 00:51:54;;;;;;;7.13;4.40;;;;;;;16.69;100.00;101981.44;3520161;40;20063;-65
2021/06/15 00:54:21;;;;;;;7.90;3.75;;;;;;;16.74;100.00;101984.59;3519813;40;20051;-65
2021/06/15 00:56:47;;;;;;;9.45;3.85;;;;;;;16.68;100.00;101990.63;3517570;40;20051;-65
2021/06/15 00:59:14;;;;;;;5.57;3.30;;;;;;;16.64;100.00;101983.78;3517878;40;20078;-65
2021/06/15 01:01:41;;;;;;;7.25;3.13;;;;;;;16.51;100.00;101984.09;3519078;40;20056;-65
2021/06/15 01:04:07;;;;;;;9.85;3.40;;;;;;;16.48;100.00;101994.41;3519483;40;20398;-64
2021/06/15 01:06:47;;;;;;;6.28;3.05;;;;;;;16.46;100.00;101995.41;3518552;40;20055;-65
2021/06/15 01:09:26;;;;;;;7.30;2.53;;;;;;;16.50;100.00;102003.25;3516571;40;20047;-65
2021/06/15 01:11:59;;;;;;;7.22;2.75;;;;;;;16.45;100.00;101996.41;3551941;40;20030;-65
2021/06/15 01:14:35;;;;;;;5.97;2.42;;;;;;;16.47;100.00;102004.41;3567510;40;20057;-65
2021/06/15 01:17:09;;;;;;;5.82;2.78;;;;;;;16.34;100.00;102002.03;3566814;40;20049;-64
2021/06/15 01:19:48;;;;;;;4.45;2.67;;;;;;;16.25;100.00;102006.47;3567705;40;20099;-65
2021/06/15 01:22:28;;;;;;;3.72;2.05;;;;;;;16.21;100.00;102009.59;3567275;40;20051;-64
2021/06/15 01:25:05;;;;;;;5.25;2.03;;;;;;;16.28;100.00;102010.75;3568200;40;20065;-64
2021/06/15 01:27:42;;;;;;;2.60;1.27;;;;;;;16.17;100.00;102013.63;3567813;40;20045;-64
2021/06/15 01:30:12;;;;;;;5.32;1.55;;;;;;;16.16;100.00;102010.03;3567426;40;20405;-64
2021/06/15 01:32:43;;;;;;;5.03;1.30;;;;;;;16.21;100.00;102009.59;3566714;40;20030;-65
2021/06/15 01:35:12;;;;;;;4.28;1.20;;;;;;;16.28;100.00;102021.59;3566706;40;20061;-64
2021/06/15 01:37:43;;;;;;;1.77;1.05;;;;;;;16.21;100.00;102009.59;3567725;40;20047;-63
2021/06/15 01:40:14;;;;;;;3.45;1.02;;;;;;;16.23;100.00;102021.19;3566812;40;20051;-64
2021/06/15 01:42:46;;;;;;;2.55;1.10;;;;;;;16.24;100.00;102025.63;3566827;40;20073;-64
2021/06/15 01:45:15;;;;;;;2.03;1.17;;;;;;;16.26;100.00;102024.47;3566153;40;20059;-64
2021/06/15 01:47:50;;;;;;;4.07;0.93;;;;;;;16.21;100.00;102026.78;3566379;40;20392;-63
2021/06/15 01:50:20;;;;;;;5.15;1.25;;;;;;;16.35;100.00;102033.59;3567800;40;20051;-66
2021/06/15 01:52:48;;;;;;;5.97;1.30;;;;;;;16.24;100.00;102042.78;3567150;40;20057;-65
2021/06/15 01:55:17;;;;;;;7.38;1.55;;;;;;;16.20;100.00;102041.34;3566081;40;20065;-63
2021/06/15 01:57:45;;;;;;;4.53;1.23;;;;;;;16.15;100.00;102040.06;3567312;40;20041;-65
2021/06/15 02:00:13;;;;;;;4.07;1.17;;;;;;;16.25;100.00;102049.06;3566782;40;20049;-63
2021/06/15 02:02:42;;;;;;;4.75;1.15;;;;;;;16.15;100.00;102048.22;3567073;40;20047;-64
2021/06/15 02:05:12;;;;;;;5.20;1.60;;;;;;;16.24;100.00;102036.50;3567578;40;20065;-65
2021/06/15 02:07:44;;;;;;;4.78;1.40;;;;;;;16.22;100.00;102033.06;3566232;40;20076;-65
2021/06/15 02:10:13;;;;;;;6.97;1.52;;;;;;;16.03;100.00;102045.66;3566969;40;20140;-66
2021/06/15 02:12:41;;;;;;;;;;;;;;;16.01;100.00;102039.50;3567213;40;20053;-64
2021/06/15 02:15:14;;;;;;;6.87;1.83;;;;;;;15.91;100.00;102044.06;3567172;40;20255;-64
2021/06/15 02:17:44;;;;;;;6.50;1.58;;;;;;;15.91;100.00;102039.47;3567535;40;20063;-64
2021/06/15 02:20:12;;;;;;;5.05;1.42;;;;;;;15.91;100.00;102034.06;3566495;40;20078;-64
2021/06/15 02:22:44;;;;;;;12.10;2.03;;;;;;;15.90;100.00;102039.63;3567283;40;20054;-64
2021/06/15 02:25:12;;;;;;;6.05;1.50;;;;;;;15.80;100.00;102036.06;3567954;40;20272;-64
2021/06/15 02:27:40;;;;;;;5.85;1.63;;;;;;;15.77;100.00;102035.31;3569263;40;20037;-64
2021/06/15 02:30:08;;;;;;;7.00;1.73;;;;;;;15.75;100.00;102029.19;3568346;40;20063;-64
2021/06/15 02:32:37;;;;;;;6.05;1.65;;;;;;;15.79;100.00;102026.22;3568733;40;20108;-63
2021/06/15 02:35:06;;;;;;;;;;;;;;;15.81;100.00;102024.19;3569231;40;20053;-64
2021/06/15 02:37:37;;;;;;;5.60;1.50;;;;;;;15.84;100.00;102034.78;3569020;40;19936;-64
2021/06/15 02:40:07;;;;;;;8.05;1.80;;;;;;;15.85;100.00;102033.78;3568120;40;20060;-64
2021/06/15 02:42:41;;;;;;;4.43;1.35;;;;;;;15.96;100.00;102033.66;3568329;40;20053;-64
2021/06/15 02:45:09;;;;;;;9.75;1.38;;;;;;;15.88;100.00;102041.63;3567861;40;20267;-64
2021/06/15 02:47:37;;;;;;;6.43;1.38;;;;;;;15.87;100.00;102035.38;3568408;40;20422;-64
2021/06/15 02:50:08;;;;;;;6.25;1.73;;;;;;;15.96;100.00;102047.22;3566630;40;20342;-64
2021/06/15 02:52:39;;;;;;;7.53;1.65;;;;;;;15.85;100.00;102040.06;3568890;40;20170;-64
2021/06/15 02:55:09;;;;;;;5.95;1.50;;;;;;;15.90;100.00;102045.06;3567986;40;20045;-65
2021/06/15 02:57:35;;;;;;;8.00;1.38;;;;;;;15.82;100.00;102045.78;3568752;40;20467;-65
2021/06/15 03:00:07;;;;;;;8.35;1.55;;;;;;;15.68;100.00;102052.47;3568641;40;20045;-65
2021/06/15 03:02:34;;;;;;;6.00;1.58;;;;;;;15.67;100.00;102050.72;3567905;40;20051;-64
2021/06/15 03:05:02;;;;;;;8.35;1.63;;;;;;;15.66;100.00;102049.00;3569020;40;20413;-65
2021/06/15 03:07:32;;;;;;;5.78;1.40;;;;;;;15.58;100.00;102048.88;3568557;40;20067;-65
2021/06/15 03:10:02;;;;;;;11.73;1.55;;;;;;;15.59;100.00;102047.84;3568830;40;20045;-65
2021/06/15 03:12:30;;;;;;;9.48;1.52;;;;;;;15.66;100.00;102053.59;3568514;40;20131;-64
2021/06/15 03:15:02;;;;;;;7.55;1.35;;;;;;;15.68;100.00;102046.16;3569257;40;20123;-65
2021/06/15 03:17:33;;;;;;;9.65;2.35;;;;;;;15.60;100.00;102049.56;3568906;40;20406;-65
2021/06/15 03:20:04;;;;;;;6.15;2.03;;;;;;;15.64;100.00;102050.16;3568569;40;20060;-65
2021/06/15 03:22:33;;;;;;;8.02;1.20;;;;;;;15.73;100.00;102049.31;3569071;40;20320;-65
2021/06/15 03:25:01;;;;;;;;;;;;;;;15.69;100.00;102048.72;3569614;40;20100;-65
2021/06/15 03:27:32;;;;;;;7.07;1.65;;;;;;;15.66;100.00;102061.72;3567963;40;19970;-65
2021/06/15 03:30:01;;;;;;;6.35;1.40;;;;;;;15.45;100.00;102072.69;3569095;40;20057;-65
2021/06/15 03:32:29;;;;;;;6.70;1.40;;;;;;;15.39;100.00;102068.66;3568507;40;20056;-65
2021/06/15 03:34:57;;;;;;;7.40;1.73;;;;;;;15.49;100.00;102060.53;3568730;40;20060;-65
2021/06/15 03:37:28;;;;;;;5.00;1.40;;;;;;;15.47;100.00;102059.81;3568274;40;20053;-66
2021/06/15 03:39:58;;;;;;;7.28;1.50;;;;;;;15.37;100.00;102065.22;3569218;40;20049;-66
2021/06/15 03:42:28;;;;;;;8.05;1.60;;;;;;;15.37;100.00;102055.25;3567121;40;20049;-65
2021/06/15 03:44:58;;;;;;;5.30;1.50;;;;;;;15.33;100.00;102067.38;3567583;40;20041;-65
2021/06/15 03:47:27;;;;;;;6.95;1.77;;;;;;;15.44;100.00;102060.09;3568061;40;20082;-66
2021/06/15 03:49:55;;;;;;;4.45;1.48;;;;;;;15.34;100.00;102071.81;3567449;40;20310;-66
2021/06/15 03:52:23;;;;;;;6.65;1.42;;;;;;;15.42;100.00;102066.53;3568326;40;20065;-66
2021/06/15 03:54:52;;;;;;;8.05;1.48;;;;;;;15.48;100.00;102059.69;3567802;40;20318;-66
2021/06/15 03:57:19;;;;;;;9.35;1.67;;;;;;;15.34;100.00;102058.22;3568286;40;20079;-65
2021/06/15 03:59:49;;;;;;;7.22;2.13;;;;;;;15.37;100.00;102063.38;3568758;40;20057;-65
2021/06/15 04:02:15;;;;;;;8.88;1.60;;;;;;;15.47;100.00;102068.81;3567691;40;20426;-66
2021/06/15 04:04:43;;;;;;;7.53;1.67;;;;;;;15.56;100.00;102067.13;3568189;40;20066;-65
2021/06/15 04:07:14;;;;;;;4.20;1.48;;;;;;;15.69;100.00;102062.28;3567802;40;20060;-65
2021/06/15 04:09:41;;;;;;;6.60;1.52;;;;;;;15.63;100.00;102076.44;3568382;40;20234;-64
2021/06/15 04:12:11;;;;;;;7.32;1.50;;;;;;;15.57;100.00;102085.13;3567235;40;20061;-65
2021/06/15 04:14:39;;;;;;;7.65;1.55;;;;;;;15.51;100.00;102089.25;3568011;40;20080;-65
2021/06/15 04:17:08;;;;;;;6.70;1.52;;;;;;;15.59;100.00;102085.84;3568131;40;20258;-66
2021/06/15 04:19:39;;;;;;;7.80;1.45;;;;;;;15.55;100.00;102100.72;3567989;40;20316;-66
2021/06/15 04:22:09;;;;;;;8.60;1.70;;;;;;;15.61;100.00;102100.16;3567958;40;20053;-65
2021/06/15 04:24:38;;;;;;;7.43;1.52;;;;;;;15.68;100.00;102087.75;3568356;40;20052;-65
2021/06/15 04:27:06;;;;;;;5.60;1.30;;;;;;;15.68;100.00;102095.00;3568499;40;20064;-65
2021/06/15 04:29:34;;;;;;;10.10;1.90;;;;;;;15.72;100.00;102096.44;3568485;40;20332;-65
2021/06/15 04:32:04;;;;;;;7.53;1.45;;;;;;;15.85;100.00;102091.66;3567077;40;20358;-64
2021/06/15 04:34:34;;;;;;;9.13;1.45;;;;;;;15.94;100.00;102079.97;3567696;40;20190;-66
2021/06/15 04:37:04;;;;;;;9.85;1.63;;;;;;;16.00;100.00;102088.53;3568292;40;20045;-65
2021/06/15 04:39:38;;;;;;;5.25;1.50;;;;;;;15.93;100.00;102094.53;3568433;40;20041;-65
2021/06/15 04:42:07;;;;;;;6.32;1.83;;;;;;;15.91;100.00;102099.22;3566043;40;20059;-65
2021/06/15 04:44:39;;;;;;;10.23;1.98;;;;;;;15.90;100.00;102099.34;3566836;40;20321;-65
2021/06/15 04:47:12;;;;;;;6.70;1.48;;;;;;;15.89;100.00;102103.09;3568610;40;20054;-65
2021/06/15 04:49:46;;;;;;;5.28;1.42;;;;;;;15.89;100.00;102109.38;3567697;40;20056;-65
2021/06/15 04:52:15;;;;;;;10.48;1.80;;;;;;;15.85;100.00;102109.81;3567418;40;20045;-65
2021/06/15 04:54:50;;;;;;;8.13;1.52;;;;;;;15.63;100.00;102108.16;3567443;40;20067;-64
2021/06/15 04:57:21;;;;;;;9.50;1.48;;;;;;;15.77;100.00;102110.47;3566883;40;20430;-66
2021/06/15 04:59:52;;;;;;;7.95;1.60;;;;;;;15.88;100.00;102109.50;3568061;40;20063;-65
2021/06/15 05:02:20;;;;;;;8.77;1.58;;;;;;;16.03;100.00;102115.41;3567348;40;20737;-66
2021/06/15 05:04:48;;;;;;;9.80;1.50;;;;;;;15.95;100.00;102121.53;3568440;40;20053;-65
2021/06/15 05:07:17;;;;;;;6.75;1.33;;;;;;;16.01;100.00;102126.41;3567909;40;20296;-66
2021/06/15 05:09:44;;;;;;;7.38;2.20;;;;;;;15.92;100.00;102121.81;3566110;40;20100;-66
2021/06/15 05:12:14;;;;;;;9.65;1.90;;;;;;;15.94;100.00;102117.97;3566386;40;20063;-64
2021/06/15 05:14:42;;;;;;;6.82;1.63;;;;;;;16.09;100.00;102121.13;3566708;40;20326;-65
2021/06/15 05:17:12;;;;;;;8.13;1.58;;;;;;;16.20;100.00;102119.28;3568254;40;20056;-65
2021/06/15 05:19:39;;;;;;;10.13;1.65;;;;;;;16.13;100.00;102118.97;3568550;40;20063;-66
2021/06/15 05:22:11;;;;;;;7.85;1.50;;;;;;;16.01;100.00;102118.25;3566872;40;20297;-65
2021/06/15 05:24:50;;;;;;;11.65;2.03;;;;;;;16.11;100.00;102126.41;3568435;40;20400;-65
2021/06/15 05:27:17;;;;;;;5.57;1.60;;;;;;;15.93;100.00;102121.69;3568122;40;20073;-66
2021/06/15 05:29:44;;;;;;;6.15;1.80;;;;;;;15.96;100.00;102128.69;3567378;40;20310;-66
2021/06/15 05:32:12;;;;;;;9.43;1.67;;;;;;;16.12;100.00;102130.84;3565765;40;20050;-66
2021/06/15 05:34:39;;;;;;;10.93;1.80;;;;;;;16.33;100.00;102128.00;3567300;40;20068;-67
2021/06/15 05:37:07;;;;;;;9.98;1.58;;;;;;;16.29;100.00;102123.84;3567873;40;20331;-65
2021/06/15 05:39:35;;;;;;;12.38;1.83;;;;;;;16.28;100.00;102114.84;3566752;40;20053;-65
2021/06/15 05:42:01;;;;;;;8.45;2.10;;;;;;;16.19;100.00;102117.56;3566075;40;20081;-65
2021/06/15 05:44:28;;;;;;;5.57;1.80;;;;;;;16.29;100.00;102116.53;3566128;40;20104;-65
2021/06/15 05:46:54;;;;;;;10.15;1.85;;;;;;;16.61;100.00;102126.25;3561135;40;20108;-66
2021/06/15 05:49:22;;;;;;;7.38;1.90;;;;;;;16.78;100.00;102123.81;3565702;40;20056;-65
2021/06/15 05:51:50;;;;;;;9.65;2.03;;;;;;;17.03;100.00;102133.22;3563838;40;20085;-65
2021/06/15 05:54:17;;;;;;;8.65;2.03;;;;;;;17.01;100.00;102129.78;3566448;40;20046;-65
2021/06/15 05:56:44;;;;;;;8.27;2.35;;;;;;;17.14;100.00;102151.25;3565938;40;20346;-65
2021/06/15 05:59:10;;;;;;;11.77;2.38;;;;;;;17.17;100.00;102153.66;3567736;40;20067;-65
2021/06/15 06:01:39;;;;;;;10.85;2.22;;;;;;;17.32;100.00;102143.16;3567710;40;20047;-64
2021/06/15 06:04:07;;;;;;;12.02;1.90;;;;;;;17.30;100.00;102158.78;3568642;40;20119;-65
2021/06/15 06:09:19;;;;;;;10.20;1.77;;;;;;;17.66;100.00;102161.63;3568971;40;20072;-65
2021/06/15 06:11:46;;;;;;;6.50;1.65;;;;;;;17.67;100.00;102149.75;3568654;40;20041;-65
2021/06/15 06:14:12;;;;;;;5.97;1.80;;;;;;;17.21;100.00;102163.25;3567986;40;20061;-65
2021/06/15 06:16:42;;;;;;;7.20;1.83;;;;;;;17.33;100.00;102174.81;3568843;40;20333;-65
2021/06/15 06:19:10;;;;;;;5.75;1.95;;;;;;;17.47;100.00;102177.03;3567979;40;20135;-66
2021/06/15 06:21:38;;;;;;;9.77;2.00;;;;;;;17.53;100.00;102175.56;3569255;40;20085;-65
2021/06/15 06:24:07;;;;;;;6.65;1.90;;;;;;;17.53;100.00;102186.47;3568579;40;20322;-66
2021/06/15 06:26:33;;;;;;;7.68;2.28;;;;;;;17.65;100.00;102185.28;3569141;40;20067;-66
2021/06/15 06:29:00;;;;;;;15.88;2.58;;;;;;;17.60;100.00;102178.56;3568262;40;20056;-65
2021/06/15 06:31:27;;;;;;;16.02;2.35;;;;;;;17.67;100.00;102193.31;3568295;40;20033;-66
2021/06/15 06:33:53;;;;;;;12.45;2.60;;;;;;;18.18;100.00;102201.91;3568023;40;20155;-66
2021/06/15 06:36:20;;;;;;;10.48;2.10;;;;;;;18.58;100.00;102202.50;3568626;40;20089;-66
2021/06/15 06:38:51;;;;;;;9.50;2.25;;;;;;;18.83;100.00;102207.16;3568454;40;20065;-65
2021/06/15 06:41:18;;;;;;;10.25;1.95;;;;;;;18.39;100.00;102205.22;3568396;40;20088;-66
2021/06/15 06:43:44;;;;;;;6.10;1.70;;;;;;;18.95;100.00;102206.94;3568946;40;20045;-67
2021/06/15 06:46:10;;;;;;;10.30;2.20;;;;;;;19.26;100.00;102201.88;3568473;40;20059;-66
2021/06/15 06:48:37;;;;;;;11.32;1.98;;;;;;;19.23;100.00;102196.75;3569227;40;20064;-65
2021/06/15 06:51:04;;;;;;;10.50;1.90;;;;;;;19.38;100.00;102195.13;3567672;40;20049;-66
2021/06/15 06:53:32;;;;;;;10.45;2.30;;;;;;;18.96;100.00;102195.00;3569122;40;20034;-66
2021/06/15 06:56:00;;;;;;;7.95;1.95;;;;;;;18.88;100.00;102193.94;3569430;40;20333;-66
2021/06/15 06:58:27;;;;;;;8.88;1.50;;;;;;;18.50;100.00;102193.22;3568115;40;20779;-66
2021/06/15 07:00:53;;;;;;;8.68;1.52;;;;;;;18.42;100.00;102197.75;3569107;40;20050;-65
2021/06/15 07:03:19;;;;;;;7.85;1.73;;;;;;;18.45;100.00;102192.84;3569027;40;20373;-65
2021/06/15 07:05:46;;;;;;;10.18;2.05;;;;;;;18.77;100.00;102194.16;3568934;40;20053;-65
2021/06/15 07:08:12;;;;;;;8.30;2.00;;;;;;;18.79;100.00;102194.84;3568689;40;20316;-65
2021/06/15 07:10:39;;;;;;;8.60;1.88;;;;;;;19.19;100.00;102184.44;3569573;40;20700;-65
2021/06/15 07:13:07;;;;;;;6.95;1.80;;;;;;;19.33;100.00;102191.16;3558894;40;20527;-65
2021/06/15 07:15:33;;;;;;;10.20;2.13;;;;;;;18.74;100.00;102202.63;3558924;40;20075;-66
2021/06/15 07:18:00;;;;;;;7.63;1.60;;;;;;;19.00;100.00;102205.44;3559474;40;20049;-66
2021/06/15 07:20:26;;;;;;;6.63;1.77;;;;;;;19.38;100.00;102210.66;3557812;40;20044;-66
2021/06/15 07:22:53;;;;;;;12.85;2.00;;;;;;;19.56;100.00;102205.13;3559595;40;20053;-65
2021/06/15 07:25:19;;;;;;;7.65;1.95;;;;;;;19.08;100.00;102218.31;3628569;22;20051;-65
2021/06/15 07:27:47;;;;;;;9.13;1.80;;;;;;;18.86;100.00;102212.34;3546725;40;20070;-65
2021/06/15 07:30:16;;;;;;;8.88;1.88;;;;;;;19.03;100.00;102201.53;3540075;40;20051;-67
2021/06/15 07:32:43;;;;;;;8.05;2.08;;;;;;;18.62;100.00;102207.47;3540387;40;20066;-65
2021/06/15 07:35:11;;;;;;;7.38;2.42;;;;;;;18.74;100.00;102208.09;3541235;40;20059;-66
2021/06/15 07:37:38;;;;;;;10.95;2.40;;;;;;;18.72;100.00;102204.69;3541442;40;20053;-66
2021/06/15 07:40:08;;;;;;;9.02;2.28;;;;;;;18.70;100.00;102201.25;3540984;40;20054;-66
2021/06/15 07:42:35;;;;;;;8.32;2.13;;;;;;;18.95;100.00;102193.28;3540884;40;20076;-66
2021/06/15 07:45:01;;;;;;;7.63;1.80;;;;;;;19.04;100.00;102211.47;3541008;40;20419;-67
2021/06/15 07:47:29;;;;;;;7.53;1.83;;;;;;;19.13;100.00;102212.38;3540817;40;20320;-67
2021/06/15 07:49:55;;;;;;;8.90;1.98;;;;;;;19.24;100.00;102215.69;3541737;40;20051;-66
2021/06/15 07:52:27;;;;;;;10.70;2.00;;;;;;;19.62;100.00;102204.47;3540956;40;20072;-66
2021/06/15 07:54:53;;;;;;;15.43;2.50;;;;;;;19.84;100.00;102192.13;3539608;40;20083;-66
2021/06/15 07:57:20;;;;;;;10.45;2.38;;;;;;;19.65;100.00;102211.47;3541823;40;20049;-65
2021/06/15 07:59:46;;;;;;;8.10;1.75;;;;;;;19.52;100.00;102209.19;3541505;40;20451;-66
2021/06/15 08:02:13;;;;;;;7.18;1.70;;;;;;;19.42;100.00;102201.97;3540350;40;20411;-66
2021/06/15 08:04:40;;;;;;;7.25;1.80;;;;;;;19.45;100.00;102189.88;3540711;40;20051;-66
2021/06/15 08:07:07;;;;;;;8.68;2.40;;;;;;;19.51;100.00;102188.38;3540250;40;20090;-67
2021/06/15 08:09:33;;;;;;;8.60;1.77;;;;;;;20.04;100.00;102194.59;3541143;40;20437;-67
2021/06/15 08:12:00;;;;;;;7.45;1.83;;;;;;;20.08;100.00;102195.97;3539957;40;20058;-67
2021/06/15 08:14:26;;;;;;;8.82;2.25;;;;;;;20.15;100.00;102188.81;3539692;40;20050;-67
2021/06/15 08:16:53;;;;;;;9.02;2.03;;;;;;;20.25;100.00;102197.72;3539588;40;20050;-66
2021/06/15 08:19:20;;;;;;;10.82;2.08;;;;;;;20.02;100.00;102188.44;3540393;40;20058;-66
2021/06/15 08:21:48;;;;;;;7.95;2.13;;;;;;;20.33;100.00;102190.56;3540199;40;20411;-66
2021/06/15 08:24:15;;;;;;;6.53;1.63;;;;;;;20.20;100.00;102182.84;3540345;40;20035;-67
2021/06/15 08:26:42;;;;;;;6.68;2.58;;;;;;;20.31;100.00;102185.25;3563197;40;20052;-67
2021/06/15 08:29:08;;;;;;;6.13;1.48;;;;;;;20.42;100.00;102175.88;3592609;40;20333;-66
2021/06/15 08:31:34;;;;;;;4.50;1.45;;;;;;;20.78;100.00;102183.78;3590470;40;20040;-66
2021/06/15 08:34:01;;;;;;;7.25;2.00;;;;;;;20.64;94.06;102188.88;3589591;40;20043;-67
2021/06/15 08:36:28;;;;;;;7.68;1.58;;;;;;;20.87;86.80;102185.47;3590530;40;20048;-66
2021/06/15 08:38:56;;;;;;;7.82;2.22;;;;;;;20.88;91.56;102181.72;3592833;39;20036;-66
2021/06/15 08:41:23;;;;;;;6.00;1.48;;;;;;;20.68;88.50;102172.16;3592343;40;20056;-66
2021/06/15 08:43:50;;;;;;;8.88;1.90;;;;;;;20.51;89.81;102172.13;3592626;40;20066;-66
2021/06/15 08:46:16;;;;;;;7.32;1.92;;;;;;;20.67;92.57;102171.31;3592243;40;20060;-65
2021/06/15 08:48:43;;;;;;;5.70;1.90;;;;;;;20.74;96.74;102171.47;3593912;40;20083;-66
2021/06/15 08:51:09;;;;;;;4.97;1.70;;;;;;;21.32;90.19;102167.63;3592194;40;20052;-66
2021/06/15 08:53:38;;;;;;;6.30;1.60;;;;;;;21.15;91.37;102165.94;3592811;40;20437;-66
2021/06/15 08:56:14;;;;;;;6.18;1.83;;;;;;;20.93;86.73;102168.38;3592361;40;20058;-67
2021/06/15 08:58:46;;;;;;;7.53;1.88;;;;;;;20.89;85.83;102167.03;3590672;40;20077;-66
2021/06/15 09:01:13;;;;;;;6.22;1.50;;;;;;;20.98;84.35;102182.41;3590423;40;20140;-66
2021/06/15 09:03:40;;;;;;;6.95;1.52;;;;;;;21.51;77.09;102176.50;3591868;40;20048;-66
2021/06/15 09:06:07;;;;;;;5.45;1.52;;;;;;;21.43;68.12;102176.50;3591963;40;20044;-66
2021/06/15 09:08:49;;;;;;;4.75;1.60;;;;;;;20.99;69.20;102175.03;3592898;40;20391;-66
2021/06/15 09:11:17;;;;;;;7.90;1.40;;;;;;;20.89;88.38;102180.72;3591710;39;20056;-66
2021/06/15 09:13:44;;;;;;;8.30;2.20;;;;;;;21.20;72.97;102177.25;3592567;40;20435;-66
2021/06/15 09:16:21;;;;;;;4.97;1.58;;;;;;;;;;3591728;40;20048;-66
2021/06/15 09:18:48;;;;;;;6.60;1.40;;;;;;;21.30;64.52;102175.16;3592657;40;20092;-65
2021/06/15 09:21:37;;;;;;;6.15;1.65;;;;;;;21.47;67.99;102164.16;3592057;40;20044;-65
2021/06/15 09:24:05;;;;;;;6.75;1.98;;;;;;;21.73;63.02;102176.75;3591099;40;20290;-66
2021/06/15 09:26:52;;;;;;;5.47;1.52;;;;;;;21.42;62.72;102191.22;3592050;40;20044;-66
2021/06/15 09:29:19;;;;;;;6.50;1.60;;;;;;;21.35;70.78;102200.13;3591194;40;20056;-66
2021/06/15 09:31:52;;;;;;;9.10;1.77;;;;;;;21.57;74.14;102186.75;3592574;39;20054;-67
2021/06/15 09:34:19;;;;;;;9.13;1.85;;;;;;;21.93;69.43;102168.94;3592705;40;20059;-66
2021/06/15 09:36:45;;;;;;;4.78;1.27;;;;;;;22.52;67.72;102184.88;3594959;40;20054;-65
2021/06/15 09:39:12;;;;;;;6.38;1.52;;;;;;;22.16;64.04;102177.22;3593342;40;20040;-66
2021/06/15 09:41:41;;;;;;;5.13;1.42;;;;;;;22.27;67.02;102179.53;3593885;40;20338;-66
2021/06/15 09:44:15;;;;;;;7.38;1.50;;;;;;;22.57;66.46;102183.28;3592617;39;20046;-67
2021/06/15 09:46:44;;;;;;;9.13;1.60;;;;;;;22.53;61.88;102190.19;3594474;40;20455;-68
2021/06/15 09:49:12;;;;;;;6.35;1.77;;;;;;;22.22;62.45;102188.31;3592738;40;20133;-67
2021/06/15 09:51:39;;;;;;;5.10;1.77;;;;;;;22.09;60.38;102178.97;3593677;40;20054;-67
2021/06/15 09:54:05;;;;;;;4.18;1.70;;;;;;;22.46;62.56;102172.75;3593026;40;20044;-67
2021/06/15 09:59:10;;;;;;;7.85;2.00;;;;;;;22.42;64.38;102162.31;3590353;22;20042;-68
2021/06/15 10:01:39;;;;;;;6.00;1.50;;;;;;;22.57;60.69;102158.59;3546609;39;20127;-67
2021/06/15 10:04:25;;;;;;;6.82;1.80;;;;;;;22.63;63.80;102165.25;3546331;39;20762;-67
2021/06/15 10:06:53;;;;;;;8.90;1.75;;;;;;;22.62;59.14;102157.19;3547669;39;20061;-65
2021/06/15 10:09:24;;;;;;;6.22;1.77;;;;;;;22.73;57.71;102156.75;3546914;39;20052;-65
2021/06/15 10:11:52;;;;;;;4.47;1.48;;;;;;;22.62;57.57;102158.03;3547517;39;20066;-65
2021/06/15 10:14:21;;;;;;;5.22;1.35;;;;;;;22.72;54.61;102153.16;3545956;39;20371;-65
2021/06/15 10:16:48;;;;;;;;;;;;;;;22.91;56.97;102170.16;3548233;39;20069;-64
2021/06/15 10:19:15;;;;;;;7.50;1.60;;;;;;;23.11;55.68;102167.72;3547282;39;20216;-67
2021/06/15 10:21:41;;;;;;;4.40;1.42;;;;;;;23.20;55.08;102163.00;3547661;39;20086;-66
2021/06/15 10:24:08;;;;;;;6.45;1.52;;;;;;;23.44;54.53;102168.22;3546493;39;20062;-66
2021/06/15 10:26:36;;;;;;;4.57;1.50;;;;;;;23.82;52.35;102163.63;3545649;39;20507;-67
2021/06/15 10:29:10;;;;;;;6.35;1.98;;;;;;;23.61;57.50;102168.91;3546287;39;20062;-67
2021/06/15 10:31:39;;;;;;;8.02;2.00;;;;;;;23.54;54.38;102175.31;3546695;39;20377;-67
2021/06/15 10:34:06;;;;;;;6.28;1.63;;;;;;;23.18;56.43;102173.34;3545786;39;20046;-67
2021/06/15 10:36:41;;;;;;;7.85;2.20;;;;;;;22.92;61.23;102174.56;3545017;39;20047;-67
2021/06/15 10:39:09;;;;;;;5.13;1.85;;;;;;;23.47;53.28;102167.00;3546902;39;20046;-66
2021/06/15 10:41:36;;;;;;;8.95;1.67;;;;;;;23.64;55.71;102164.03;3545996;39;20064;-66
2021/06/15 10:44:03;;;;;;;5.40;1.60;;;;;;;23.79;54.84;102162.97;3544559;39;20045;-68
2021/06/15 10:46:36;;;;;;;6.13;1.48;;;;;;;23.76;55.54;102168.00;3546201;39;20422;-66
2021/06/15 10:49:08;;;;;;;4.00;1.70;;;;;;;24.34;51.25;102162.56;3545600;39;20050;-67
2021/06/15 10:51:54;;;;;;;6.32;1.70;;;;;;;23.92;50.04;102154.06;3544086;39;20045;-67
2021/06/15 10:54:32;;;;;;;8.00;1.90;;;;;;;23.90;53.74;102158.06;3545945;39;20056;-66
2021/06/15 10:57:17;;;;;;;4.28;1.30;;;;;;;24.60;50.93;102151.00;3547144;39;20109;-67
2021/06/15 11:00:09;;;;;;;6.75;1.85;;;;;;;24.40;49.35;102153.53;3547076;39;20338;-67
2021/06/15 11:02:36;;;;;;;9.80;2.22;;;;;;;24.32;51.90;102153.63;3547533;39;20048;-66
2021/06/15 11:05:39;;;;;;;5.72;1.92;;;;;;;24.22;52.96;102158.63;3548252;39;20048;-68
2021/06/15 11:08:17;;;;;;;6.03;1.70;;;;;;;24.48;47.81;102156.16;3547616;39;20042;-68
2021/06/15 11:10:45;;;;;;;8.25;1.70;;;;;;;24.11;54.15;102154.50;3547891;39;20120;-67
2021/06/15 11:13:11;;;;;;;5.13;1.40;;;;;;;24.22;50.18;102147.59;3547457;39;20054;-67
2021/06/15 11:15:56;;;;;;;3.42;1.45;;;;;;;24.41;47.86;102141.47;3546677;39;20061;-67
2021/06/15 11:18:23;;;;;;;5.18;1.48;;;;;;;24.62;46.60;102137.88;3546101;39;20421;-68
2021/06/15 11:20:50;;;;;;;6.68;1.70;;;;;;;23.89;48.21;102137.94;3546124;39;20374;-67
2021/06/15 11:23:24;;;;;;;4.95;1.65;;;;;;;24.39;47.81;102138.03;3546213;39;20625;-68
2021/06/15 11:25:52;;;;;;;4.65;1.75;;;;;;;24.34;49.13;102139.69;3546752;39;20124;-67
2021/06/15 11:28:39;;;;;;;5.88;1.88;;;;;;;24.90;47.78;102133.44;3545934;39;20304;-67
2021/06/15 11:31:37;;;;;;;6.30;1.50;;;;;;;24.60;48.39;102130.84;3546837;39;20054;-66
2021/06/15 11:34:05;;;;;;;5.43;1.67;;;;;;;24.72;46.46;102118.28;3544796;39;20082;-66